Station History

Weather Underground - logo

Station Historical Data
Daily Summary for January 28, 2018 Units:  Both    English   Metric
« Previous Day
Next Day »
Daily Weekly Monthly Yearly Custom
  High: Low: Average:
Temperature: 62.5 °F /  16.9 °C 41.6 °F /  5.3 °C 49.9 °F /  9.9 °C
Dew Point: 46.9 °F /  8.3 °C 39.2 °F /  4 °C 43.6 °F /  6.4 °C
Humidity: 93 % 54 % 80 %
Wind Speed: 3.5 mph /  5.6 km/h - 0.1 mph /  0.2 km/h
Wind Gust: 3.5 mph /  5.6 km/h - -
Wind:- - WNW
Pressure: 30.42 in /  1030 hPa 30.30 in /  1026 hPa -
Precipitation: 0.00 in /  0 mm    
Historical Graphs
 
 
Tabular Data for January 28, 2018
Time Temperature Dew Point Pressure Wind Wind Speed Wind Gust Humidity Rainfall Rate (Hourly)
10:42 57.2 °F /  14 °C 45.1 °F /  7.3 °C 30.42 in /  1030 hPa WSW 2.3 mph /  3.7 km/h 2.3 mph /  3.7 km/h 64 % 0.00 in /  0 mm
15:48 62.4 °F /  16.9 °C 45.5 °F /  7.5 °C 30.32 in /  1026.6 hPa NW 3.5 mph /  5.6 km/h 3.5 mph /  5.6 km/h 54 % 0.00 in /  0 mm
15:53 62.5 °F /  16.9 °C 46.1 °F /  7.8 °C 30.32 in /  1026.6 hPa WNW 1.2 mph /  1.9 km/h   55 % 0.00 in /  0 mm
15:58 62.4 °F /  16.9 °C 45.5 °F /  7.5 °C 30.32 in /  1026.6 hPa NW 1.2 mph /  1.9 km/h 1.2 mph /  1.9 km/h 54 % 0.00 in /  0 mm
16:03 62.3 °F /  16.8 °C 45.4 °F /  7.4 °C 30.32 in /  1026.6 hPa Calm     54 % 0.00 in /  0 mm
16:08 62.2 °F /  16.8 °C 45.8 °F /  7.7 °C 30.31 in /  1026.3 hPa Calm     55 % 0.00 in /  0 mm
16:13 62.1 °F /  16.7 °C 45.7 °F /  7.6 °C 30.31 in /  1026.3 hPa Calm     55 % 0.00 in /  0 mm
16:18 61.9 °F /  16.6 °C 45.5 °F /  7.5 °C 30.31 in /  1026.3 hPa Calm     55 % 0.00 in /  0 mm
16:23 61.7 °F /  16.5 °C 45.8 °F /  7.7 °C 30.31 in /  1026.3 hPa Calm     56 % 0.00 in /  0 mm
16:28 61.4 °F /  16.3 °C 45.6 °F /  7.6 °C 30.31 in /  1026.3 hPa Calm     56 % 0.00 in /  0 mm
16:33 61.2 °F /  16.2 °C 45.8 °F /  7.7 °C 30.30 in /  1026 hPa Calm     57 % 0.00 in /  0 mm
16:38 61.1 °F /  16.2 °C 46.2 °F /  7.9 °C 30.30 in /  1026 hPa Calm     58 % 0.00 in /  0 mm
16:43 61.0 °F /  16.1 °C 46.1 °F /  7.8 °C 30.30 in /  1026 hPa Calm     58 % 0.00 in /  0 mm
16:48 60.8 °F /  16 °C 46.4 °F /  8 °C 30.30 in /  1026 hPa Calm     59 % 0.00 in /  0 mm
16:53 60.5 °F /  15.8 °C 46.5 °F /  8.1 °C 30.30 in /  1026 hPa Calm     60 % 0.00 in /  0 mm
16:58 60.1 °F /  15.6 °C 46.6 °F /  8.1 °C 30.30 in /  1026 hPa Calm     61 % 0.00 in /  0 mm
17:03 59.5 °F /  15.3 °C 46.9 °F /  8.3 °C 30.30 in /  1026 hPa Calm     63 % 0.00 in /  0 mm
17:08 58.9 °F /  14.9 °C 46.7 °F /  8.2 °C 30.31 in /  1026.3 hPa Calm     64 % 0.00 in /  0 mm
17:13 58.2 °F /  14.6 °C 46.5 °F /  8.1 °C 30.31 in /  1026.3 hPa Calm     65 % 0.00 in /  0 mm
17:18 57.7 °F /  14.3 °C 46.8 °F /  8.2 °C 30.31 in /  1026.3 hPa Calm     67 % 0.00 in /  0 mm
17:23 57.2 °F /  14 °C 46.7 °F /  8.2 °C 30.31 in /  1026.3 hPa Calm     68 % 0.00 in /  0 mm
17:28 56.7 °F /  13.7 °C 46.6 °F /  8.1 °C 30.31 in /  1026.3 hPa Calm     69 % 0.00 in /  0 mm
17:33 56.1 °F /  13.4 °C 46.4 °F /  8 °C 30.31 in /  1026.3 hPa Calm     70 % 0.00 in /  0 mm
17:38 55.5 °F /  13.1 °C 46.6 °F /  8.1 °C 30.31 in /  1026.3 hPa Calm     72 % 0.00 in /  0 mm
17:43 54.9 °F /  12.7 °C 46.8 °F /  8.2 °C 30.31 in /  1026.3 hPa Calm     74 % 0.00 in /  0 mm
17:48 54.4 °F /  12.4 °C 46.3 °F /  7.9 °C 30.31 in /  1026.3 hPa Calm     74 % 0.00 in /  0 mm
17:53 53.9 °F /  12.2 °C 46.5 °F /  8.1 °C 30.31 in /  1026.3 hPa Calm     76 % 0.00 in /  0 mm
17:58 53.3 °F /  11.8 °C 45.9 °F /  7.7 °C 30.31 in /  1026.3 hPa Calm     76 % 0.00 in /  0 mm
18:03 52.8 °F /  11.6 °C 45.8 °F /  7.7 °C 30.31 in /  1026.3 hPa Calm     77 % 0.00 in /  0 mm
18:08 52.3 °F /  11.3 °C 46.0 °F /  7.8 °C 30.31 in /  1026.3 hPa Calm     79 % 0.00 in /  0 mm
18:13 52.0 °F /  11.1 °C 45.7 °F /  7.6 °C 30.31 in /  1026.3 hPa Calm     79 % 0.00 in /  0 mm
18:18 51.8 °F /  11 °C 45.8 °F /  7.7 °C 30.31 in /  1026.3 hPa Calm     80 % 0.00 in /  0 mm
18:23 51.6 °F /  10.9 °C 45.6 °F /  7.6 °C 30.31 in /  1026.3 hPa Calm     80 % 0.00 in /  0 mm
18:28 51.4 °F /  10.8 °C 45.8 °F /  7.7 °C 30.31 in /  1026.3 hPa Calm     81 % 0.00 in /  0 mm
18:33 51.0 °F /  10.6 °C 45.4 °F /  7.4 °C 30.31 in /  1026.3 hPa Calm     81 % 0.00 in /  0 mm
18:38 50.6 °F /  10.3 °C 45.0 °F /  7.2 °C 30.32 in /  1026.6 hPa Calm     81 % 0.00 in /  0 mm
18:43 50.3 °F /  10.2 °C 45.0 °F /  7.2 °C 30.32 in /  1026.6 hPa Calm     82 % 0.00 in /  0 mm
18:49 50.1 °F /  10.1 °C 44.8 °F /  7.1 °C 30.32 in /  1026.6 hPa Calm     82 % 0.00 in /  0 mm
18:54 50.0 °F /  10 °C 45.0 °F /  7.2 °C 30.32 in /  1026.6 hPa Calm     83 % 0.00 in /  0 mm
18:59 49.9 °F /  9.9 °C 44.9 °F /  7.2 °C 30.32 in /  1026.6 hPa Calm     83 % 0.00 in /  0 mm
19:04 49.6 °F /  9.8 °C 44.6 °F /  7 °C 30.32 in /  1026.6 hPa Calm     83 % 0.00 in /  0 mm
19:09 49.4 °F /  9.7 °C 44.5 °F /  6.9 °C 30.32 in /  1026.6 hPa Calm     83 % 0.00 in /  0 mm
19:14 49.3 °F /  9.6 °C 44.4 °F /  6.9 °C 30.32 in /  1026.6 hPa Calm     83 % 0.00 in /  0 mm
19:19 49.1 °F /  9.5 °C 44.5 °F /  6.9 °C 30.32 in /  1026.6 hPa Calm     84 % 0.00 in /  0 mm
19:24 49.4 °F /  9.7 °C 44.8 °F /  7.1 °C 30.32 in /  1026.6 hPa Calm     84 % 0.00 in /  0 mm
19:29 49.6 °F /  9.8 °C 44.6 °F /  7 °C 30.32 in /  1026.6 hPa Calm     83 % 0.00 in /  0 mm
19:34 49.3 °F /  9.6 °C 44.0 °F /  6.7 °C 30.32 in /  1026.6 hPa Calm     82 % 0.00 in /  0 mm
19:39 48.9 °F /  9.4 °C 44.0 °F /  6.7 °C 30.32 in /  1026.6 hPa Calm     83 % 0.00 in /  0 mm
19:44 48.5 °F /  9.2 °C 43.9 °F /  6.6 °C 30.32 in /  1026.6 hPa Calm     84 % 0.00 in /  0 mm
19:49 48.2 °F /  9 °C 43.9 °F /  6.6 °C 30.32 in /  1026.6 hPa Calm     85 % 0.00 in /  0 mm
19:54 47.9 °F /  8.8 °C 43.6 °F /  6.4 °C 30.32 in /  1026.6 hPa Calm     85 % 0.00 in /  0 mm
19:59 47.7 °F /  8.7 °C 43.7 °F /  6.5 °C 30.32 in /  1026.6 hPa Calm     86 % 0.00 in /  0 mm
20:04 47.5 °F /  8.6 °C 43.5 °F /  6.4 °C 30.32 in /  1026.6 hPa Calm     86 % 0.00 in /  0 mm
20:09 47.3 °F /  8.5 °C 43.3 °F /  6.3 °C 30.32 in /  1026.6 hPa Calm     86 % 0.00 in /  0 mm
20:14 46.9 °F /  8.3 °C 42.9 °F /  6.1 °C 30.32 in /  1026.6 hPa Calm     86 % 0.00 in /  0 mm
20:19 46.7 °F /  8.2 °C 42.7 °F /  5.9 °C 30.33 in /  1027 hPa Calm     86 % 0.00 in /  0 mm
20:24 46.4 °F /  8 °C 42.4 °F /  5.8 °C 30.33 in /  1027 hPa Calm     86 % 0.00 in /  0 mm
20:29 46.2 °F /  7.9 °C 42.2 °F /  5.7 °C 30.33 in /  1027 hPa Calm     86 % 0.00 in /  0 mm
20:34 46.1 °F /  7.8 °C 42.4 °F /  5.8 °C 30.33 in /  1027 hPa Calm     87 % 0.00 in /  0 mm
20:39 46.3 °F /  7.9 °C 42.9 °F /  6.1 °C 30.32 in /  1026.6 hPa Calm     88 % 0.00 in /  0 mm
20:44 46.5 °F /  8.1 °C 43.1 °F /  6.2 °C 30.32 in /  1026.6 hPa Calm     88 % 0.00 in /  0 mm
20:49 46.0 °F /  7.8 °C 42.0 °F /  5.6 °C 30.32 in /  1026.6 hPa Calm     86 % 0.00 in /  0 mm
20:54 45.8 °F /  7.7 °C 42.2 °F /  5.7 °C 30.32 in /  1026.6 hPa Calm     87 % 0.00 in /  0 mm
20:59 45.5 °F /  7.5 °C 41.9 °F /  5.5 °C 30.32 in /  1026.6 hPa Calm     87 % 0.00 in /  0 mm
21:04 45.5 °F /  7.5 °C 42.2 °F /  5.7 °C 30.32 in /  1026.6 hPa Calm     88 % 0.00 in /  0 mm
21:09 45.3 °F /  7.4 °C 42.0 °F /  5.6 °C 30.32 in /  1026.6 hPa Calm     88 % 0.00 in /  0 mm
21:14 45.1 °F /  7.3 °C 41.8 °F /  5.4 °C 30.33 in /  1027 hPa Calm     88 % 0.00 in /  0 mm
21:19 45.1 °F /  7.3 °C 42.1 °F /  5.6 °C 30.33 in /  1027 hPa Calm     89 % 0.00 in /  0 mm
21:24 45.0 °F /  7.2 °C 42.0 °F /  5.6 °C 30.33 in /  1027 hPa Calm     89 % 0.00 in /  0 mm
21:29 44.8 °F /  7.1 °C 41.8 °F /  5.4 °C 30.33 in /  1027 hPa Calm     89 % 0.00 in /  0 mm
21:34 44.6 °F /  7 °C 41.6 °F /  5.3 °C 30.33 in /  1027 hPa Calm     89 % 0.00 in /  0 mm
21:39 44.5 °F /  6.9 °C 41.7 °F /  5.4 °C 30.33 in /  1027 hPa Calm     90 % 0.00 in /  0 mm
21:44 44.5 °F /  6.9 °C 41.7 °F /  5.4 °C 30.33 in /  1027 hPa Calm     90 % 0.00 in /  0 mm
21:49 44.4 °F /  6.9 °C 41.7 °F /  5.4 °C 30.33 in /  1027 hPa Calm     90 % 0.00 in /  0 mm
21:54 44.5 °F /  6.9 °C 41.7 °F /  5.4 °C 30.33 in /  1027 hPa Calm     90 % 0.00 in /  0 mm
22:00 44.5 °F /  6.9 °C 42.0 °F /  5.6 °C 30.33 in /  1027 hPa Calm     91 % 0.00 in /  0 mm
22:05 44.5 °F /  6.9 °C 42.0 °F /  5.6 °C 30.33 in /  1027 hPa Calm     91 % 0.00 in /  0 mm
22:10 44.4 °F /  6.9 °C 41.7 °F /  5.4 °C 30.33 in /  1027 hPa Calm     90 % 0.00 in /  0 mm
22:15 44.2 °F /  6.8 °C 41.2 °F /  5.1 °C 30.33 in /  1027 hPa Calm     89 % 0.00 in /  0 mm
22:20 43.9 °F /  6.6 °C 40.9 °F /  4.9 °C 30.33 in /  1027 hPa Calm     89 % 0.00 in /  0 mm
22:25 43.6 °F /  6.4 °C 40.9 °F /  4.9 °C 30.33 in /  1027 hPa Calm     90 % 0.00 in /  0 mm
22:30 43.4 °F /  6.3 °C 40.7 °F /  4.8 °C 30.33 in /  1027 hPa Calm     90 % 0.00 in /  0 mm
22:35 43.2 °F /  6.2 °C 40.5 °F /  4.7 °C 30.33 in /  1027 hPa Calm     90 % 0.00 in /  0 mm
22:40 42.9 °F /  6.1 °C 40.2 °F /  4.6 °C 30.33 in /  1027 hPa Calm     90 % 0.00 in /  0 mm
22:45 42.8 °F /  6 °C 40.4 °F /  4.7 °C 30.33 in /  1027 hPa Calm     91 % 0.00 in /  0 mm
22:50 42.7 °F /  5.9 °C 40.3 °F /  4.6 °C 30.33 in /  1027 hPa Calm     91 % 0.00 in /  0 mm
22:55 42.8 °F /  6 °C 40.6 °F /  4.8 °C 30.33 in /  1027 hPa Calm     92 % 0.00 in /  0 mm
23:00 42.9 °F /  6.1 °C 40.7 °F /  4.8 °C 30.33 in /  1027 hPa Calm     92 % 0.00 in /  0 mm
23:05 43.1 °F /  6.2 °C 40.9 °F /  4.9 °C 30.32 in /  1026.6 hPa Calm     92 % 0.00 in /  0 mm
23:10 43.2 °F /  6.2 °C 41.0 °F /  5 °C 30.32 in /  1026.6 hPa Calm     92 % 0.00 in /  0 mm
23:15 43.6 °F /  6.4 °C 41.7 °F /  5.4 °C 30.32 in /  1026.6 hPa Calm     93 % 0.00 in /  0 mm
23:20 43.8 °F /  6.6 °C 41.6 °F /  5.3 °C 30.33 in /  1027 hPa Calm     92 % 0.00 in /  0 mm
23:25 43.5 °F /  6.4 °C 40.8 °F /  4.9 °C 30.33 in /  1027 hPa WNW 1.2 mph /  1.9 km/h 1.2 mph /  1.9 km/h 90 % 0.00 in /  0 mm
23:30 42.8 °F /  6 °C 40.1 °F /  4.5 °C 30.33 in /  1027 hPa Calm     90 % 0.00 in /  0 mm
23:35 42.5 °F /  5.8 °C 39.8 °F /  4.3 °C 30.33 in /  1027 hPa Calm     90 % 0.00 in /  0 mm
23:40 42.3 °F /  5.7 °C 39.9 °F /  4.4 °C 30.34 in /  1027.3 hPa Calm     91 % 0.00 in /  0 mm
23:45 42.1 °F /  5.6 °C 39.7 °F /  4.3 °C 30.34 in /  1027.3 hPa Calm     91 % 0.00 in /  0 mm
23:50 41.9 °F /  5.5 °C 39.5 °F /  4.2 °C 30.34 in /  1027.3 hPa Calm     91 % 0.00 in /  0 mm
23:55 41.6 °F /  5.3 °C 39.2 °F /  4 °C 30.34 in /  1027.3 hPa Calm     91 % 0.00 in /  0 mm
Park Place, Exeter, Tulare County, California, USA
Compliments of Weather Underground - 1.75 mb